createdAt,value
2018-07-25T00:00:09.233Z,25.75
2018-07-25T00:01:24.141Z,25.78
2018-07-25T00:02:38.602Z,25.78
2018-07-25T00:03:53.316Z,25.81
2018-07-25T00:05:08.008Z,25.82
2018-07-25T00:06:22.941Z,25.83
2018-07-25T00:07:37.646Z,25.83
2018-07-25T00:08:51.577Z,25.83
2018-07-25T00:10:06.317Z,25.83
2018-07-25T00:11:20.996Z,25.84
2018-07-25T00:12:35.209Z,25.84
2018-07-25T00:13:50.118Z,25.84
2018-07-25T00:15:03.553Z,25.86
2018-07-25T00:16:18.513Z,25.85
2018-07-25T00:17:32.939Z,25.84
2018-07-25T00:18:47.385Z,25.84
2018-07-25T00:20:01.826Z,25.82
2018-07-25T00:21:16.028Z,25.81
2018-07-25T00:22:30.832Z,25.78
2018-07-25T00:23:45.314Z,25.75
2018-07-25T00:25:00.019Z,25.73
2018-07-25T00:26:14.743Z,25.71
2018-07-25T00:27:29.796Z,25.67
2018-07-25T00:28:43.519Z,25.65
2018-07-25T00:29:57.681Z,25.62
2018-07-25T00:31:12.138Z,25.6
2018-07-25T00:32:26.642Z,25.58
2018-07-25T00:33:41.338Z,25.55
2018-07-25T00:34:56.027Z,25.52
2018-07-25T00:36:10.934Z,25.5
2018-07-25T00:37:26.591Z,25.48
2018-07-25T00:38:41.280Z,25.47
2018-07-25T00:39:55.957Z,25.47
2018-07-25T00:41:10.126Z,25.46
2018-07-25T00:42:24.980Z,25.45
2018-07-25T00:43:39.651Z,25.43
2018-07-25T00:44:54.559Z,25.43
2018-07-25T00:46:09.241Z,25.42
2018-07-25T00:47:23.912Z,25.42
2018-07-25T00:48:38.335Z,25.4
2018-07-25T00:49:52.484Z,25.41
2018-07-25T00:51:07.167Z,25.4
2018-07-25T00:52:22.117Z,25.41
2018-07-25T00:53:37.171Z,25.38
2018-07-25T00:54:51.603Z,25.38
2018-07-25T00:56:05.812Z,25.39
2018-07-25T00:57:20.493Z,25.4
2018-07-25T00:58:34.658Z,25.41
2018-07-25T00:59:48.863Z,25.42
2018-07-25T01:01:03.538Z,25.43
2018-07-25T01:02:17.967Z,25.44
2018-07-25T01:03:32.113Z,25.45
2018-07-25T01:04:46.578Z,25.45
2018-07-25T01:06:01.487Z,25.46
2018-07-25T01:07:15.665Z,25.46
2018-07-25T01:08:30.106Z,25.45
2018-07-25T01:09:44.818Z,25.45
2018-07-25T01:10:59.486Z,25.46
2018-07-25T01:12:13.439Z,25.47
2018-07-25T01:13:27.877Z,25.48
2018-07-25T01:14:42.806Z,25.48
2018-07-25T01:15:57.015Z,25.47
2018-07-25T01:17:11.465Z,25.47
2018-07-25T01:18:25.986Z,25.46
2018-07-25T01:19:40.726Z,25.44
2018-07-25T01:20:55.199Z,25.4
2018-07-25T01:22:09.375Z,25.38
2018-07-25T01:23:23.788Z,25.35
2018-07-25T01:24:38.203Z,25.34
2018-07-25T01:25:52.876Z,25.31
2018-07-25T01:27:07.548Z,25.27
2018-07-25T01:28:22.210Z,25.24
2018-07-25T01:29:37.205Z,25.21
2018-07-25T01:30:51.937Z,25.17
2018-07-25T01:32:06.095Z,25.16
2018-07-25T01:33:20.827Z,25.16
2018-07-25T01:34:35.743Z,25.17
2018-07-25T01:35:50.203Z,25.18
2018-07-25T01:37:04.620Z,25.2
2018-07-25T01:38:19.290Z,25.21
2018-07-25T01:39:33.918Z,25.23
2018-07-25T01:40:48.330Z,25.23
2018-07-25T01:42:02.272Z,25.25
2018-07-25T01:43:16.879Z,25.27
2018-07-25T01:44:31.398Z,25.26
2018-07-25T01:45:46.112Z,25.28
2018-07-25T01:47:00.268Z,25.31
2018-07-25T01:48:14.435Z,25.33
2018-07-25T01:49:28.687Z,25.35
2018-07-25T01:50:42.678Z,25.37
2018-07-25T01:51:57.152Z,25.4
2018-07-25T01:53:11.582Z,25.41
2018-07-25T01:54:26.016Z,25.41
2018-07-25T01:55:40.396Z,25.42
2018-07-25T01:56:54.830Z,25.42
2018-07-25T01:58:09.506Z,25.42
2018-07-25T01:59:23.932Z,25.41
2018-07-25T02:00:38.373Z,25.41
2018-07-25T02:01:53.043Z,25.4
2018-07-25T02:03:07.481Z,25.41
2018-07-25T02:04:22.134Z,25.41
2018-07-25T02:05:36.722Z,25.4
2018-07-25T02:06:50.919Z,25.4
2018-07-25T02:08:05.909Z,25.39
2018-07-25T02:09:21.336Z,25.39
2018-07-25T02:10:36.272Z,25.38
2018-07-25T02:11:50.966Z,25.37
2018-07-25T02:13:05.397Z,25.36
2018-07-25T02:14:19.894Z,25.34
2018-07-25T02:15:34.209Z,25.33
2018-07-25T02:16:48.904Z,25.3
2018-07-25T02:18:03.333Z,25.27
2018-07-25T02:19:18.267Z,25.25
2018-07-25T02:20:33.285Z,25.23
2018-07-25T02:21:47.168Z,25.2
2018-07-25T02:23:01.581Z,25.19
2018-07-25T02:24:15.523Z,25.16
2018-07-25T02:25:30.274Z,25.11
2018-07-25T02:26:44.975Z,25.06
2018-07-25T02:27:59.936Z,25.02
2018-07-25T02:29:14.573Z,24.96
2018-07-25T02:30:28.730Z,24.91
2018-07-25T02:31:42.938Z,24.86
2018-07-25T02:32:56.638Z,24.81
2018-07-25T02:34:10.848Z,24.77
2018-07-25T02:35:25.834Z,24.72
2018-07-25T02:36:40.401Z,24.68
2018-07-25T02:37:54.343Z,24.67
2018-07-25T02:39:09.296Z,24.62
2018-07-25T02:40:23.209Z,24.59
2018-07-25T02:41:37.629Z,24.57
2018-07-25T02:42:51.836Z,24.56
2018-07-25T02:44:06.033Z,24.55
2018-07-25T02:45:20.773Z,24.57
2018-07-25T02:46:35.622Z,24.56
2018-07-25T02:47:50.080Z,24.56
2018-07-25T02:49:04.757Z,24.56
2018-07-25T02:50:19.729Z,24.55
2018-07-25T02:51:34.453Z,24.53
2018-07-25T02:52:48.686Z,24.51
2018-07-25T02:54:03.145Z,24.5
2018-07-25T02:55:17.832Z,24.49
2018-07-25T02:56:32.765Z,24.5
2018-07-25T02:57:47.323Z,24.5
2018-07-25T02:59:02.017Z,24.5
2018-07-25T03:00:16.707Z,24.51
2018-07-25T03:01:31.138Z,24.5
2018-07-25T03:02:45.554Z,24.5
2018-07-25T03:03:59.997Z,24.48
2018-07-25T03:05:14.669Z,24.45
2018-07-25T03:06:28.595Z,24.43
2018-07-25T03:07:43.241Z,24.42
2018-07-25T03:08:57.817Z,24.4
2018-07-25T03:10:13.093Z,24.39
2018-07-25T03:11:27.785Z,24.38
2018-07-25T03:12:42.280Z,24.39
2018-07-25T03:13:56.957Z,24.4
2018-07-25T03:15:11.918Z,24.41
2018-07-25T03:16:26.369Z,24.41
2018-07-25T03:17:41.647Z,24.41
2018-07-25T03:18:56.593Z,24.39
2018-07-25T03:20:11.285Z,24.36
2018-07-25T03:21:25.971Z,24.35
2018-07-25T03:22:39.928Z,24.31
2018-07-25T03:23:54.499Z,24.26
2018-07-25T03:25:08.541Z,24.26
2018-07-25T03:26:22.737Z,24.25
2018-07-25T03:27:37.294Z,24.25
2018-07-25T03:28:51.693Z,24.24
2018-07-25T03:30:05.648Z,24.25
2018-07-25T03:31:20.341Z,24.24
2018-07-25T03:32:35.579Z,24.23
2018-07-25T03:33:50.505Z,24.24
2018-07-25T03:35:04.685Z,24.25
2018-07-25T03:36:19.118Z,24.26
2018-07-25T03:37:33.408Z,24.27
2018-07-25T03:38:48.168Z,24.27
2018-07-25T03:40:02.863Z,24.28
2018-07-25T03:41:17.531Z,24.29
2018-07-25T03:42:31.674Z,24.3
2018-07-25T03:43:46.863Z,24.31
2018-07-25T03:45:01.295Z,24.31
2018-07-25T03:46:15.208Z,24.31
2018-07-25T03:47:29.866Z,24.29
2018-07-25T03:48:44.304Z,24.3
2018-07-25T03:49:59.230Z,24.3
2018-07-25T03:51:13.892Z,24.32
2018-07-25T03:52:27.826Z,24.33
2018-07-25T03:53:42.055Z,24.34
2018-07-25T03:54:57.005Z,24.35
2018-07-25T03:56:11.209Z,24.36
2018-07-25T03:57:25.420Z,24.33
2018-07-25T03:58:40.431Z,24.3
2018-07-25T03:59:54.855Z,24.26
2018-07-25T04:01:09.262Z,24.19
2018-07-25T04:02:23.289Z,24.15
2018-07-25T04:03:38.080Z,24.1
2018-07-25T04:04:52.643Z,24.09
2018-07-25T04:06:07.394Z,24.11
2018-07-25T04:07:21.614Z,24.16
2018-07-25T04:08:36.558Z,24.32
2018-07-25T04:09:51.031Z,24.57
2018-07-25T04:11:05.638Z,24.83
2018-07-25T04:12:20.041Z,25.06
2018-07-25T04:13:34.491Z,25.26
2018-07-25T04:14:49.208Z,25.42
2018-07-25T04:16:03.872Z,25.48
2018-07-25T04:17:18.307Z,25.42
2018-07-25T04:18:33.233Z,25.34
2018-07-25T04:19:48.183Z,25.25
2018-07-25T04:21:02.391Z,25.24
2018-07-25T04:22:16.544Z,25.31
2018-07-25T04:23:30.998Z,25.38
2018-07-25T04:24:46.063Z,25.51
2018-07-25T04:26:00.623Z,25.82
2018-07-25T04:27:15.339Z,26.12
2018-07-25T04:28:29.275Z,26.33
2018-07-25T04:29:44.421Z,26.51
2018-07-25T04:30:59.097Z,26.8
2018-07-25T04:32:13.377Z,27.05
2018-07-25T04:33:28.076Z,27.11
2018-07-25T04:34:42.680Z,26.99
2018-07-25T04:35:57.260Z,26.81
2018-07-25T04:37:11.486Z,26.68
2018-07-25T04:38:25.381Z,26.55
2018-07-25T04:39:39.823Z,26.48
2018-07-25T04:40:54.606Z,26.5
2018-07-25T04:42:08.838Z,26.58
2018-07-25T04:43:23.504Z,26.81
2018-07-25T04:44:37.937Z,27.02
2018-07-25T04:45:52.674Z,27.05
2018-07-25T04:47:06.952Z,26.97
2018-07-25T04:48:21.873Z,26.92
2018-07-25T04:49:36.044Z,26.83
2018-07-25T04:50:50.477Z,26.73
2018-07-25T04:52:05.130Z,26.67
2018-07-25T04:53:19.885Z,26.62
2018-07-25T04:54:34.855Z,26.56
2018-07-25T04:55:49.512Z,26.5
2018-07-25T04:57:03.723Z,26.44
2018-07-25T04:58:17.924Z,26.4
2018-07-25T04:59:32.361Z,26.36
2018-07-25T05:00:47.137Z,26.35
2018-07-25T05:02:01.770Z,26.35
2018-07-25T05:03:16.206Z,26.64
2018-07-25T05:04:30.196Z,27.08
2018-07-25T05:05:44.945Z,27.71
2018-07-25T05:06:59.663Z,28.39
2018-07-25T05:08:13.764Z,28.5
2018-07-25T05:09:27.960Z,28.71
2018-07-25T05:10:42.623Z,29.79
2018-07-25T05:11:57.057Z,30.59
2018-07-25T05:13:11.757Z,31.41
2018-07-25T05:14:26.192Z,32.11
2018-07-25T05:15:41.139Z,32.75
2018-07-25T05:16:55.113Z,33.32
2018-07-25T05:18:09.330Z,33.49
2018-07-25T05:19:24.049Z,33.11
2018-07-25T05:20:38.308Z,32.69
2018-07-25T05:21:52.539Z,32.92
2018-07-25T05:23:07.019Z,33.57
2018-07-25T05:24:21.734Z,34.04
2018-07-25T05:25:36.143Z,34.55
2018-07-25T05:26:50.820Z,34.48
2018-07-25T05:28:04.786Z,33.85
2018-07-25T05:29:19.288Z,33.1
2018-07-25T05:30:33.992Z,32.51
2018-07-25T05:31:48.304Z,31.94
2018-07-25T05:33:02.739Z,31.45
2018-07-25T05:34:17.697Z,30.94
2018-07-25T05:35:31.890Z,30.49
2018-07-25T05:36:46.105Z,30.1
2018-07-25T05:38:00.097Z,29.76
2018-07-25T05:39:14.745Z,29.46
2018-07-25T05:40:29.682Z,29.21
2018-07-25T05:41:44.262Z,29
2018-07-25T05:42:58.725Z,28.82
2018-07-25T05:44:13.407Z,28.67
2018-07-25T05:45:28.116Z,28.51
2018-07-25T05:46:42.563Z,28.38
2018-07-25T05:47:56.748Z,28.26
2018-07-25T05:49:11.459Z,28.12
2018-07-25T05:50:25.800Z,28.04
2018-07-25T05:51:40.476Z,27.95
2018-07-25T05:52:55.254Z,27.91
2018-07-25T05:54:10.134Z,27.83
2018-07-25T05:55:24.567Z,27.8
2018-07-25T05:56:39.561Z,27.77
2018-07-25T05:57:54.865Z,27.73
2018-07-25T05:59:09.314Z,27.7
2018-07-25T06:00:23.260Z,27.68
2018-07-25T06:01:37.730Z,27.63
2018-07-25T06:12:24.576Z,27.4
2018-07-25T06:13:39.309Z,27.42
2018-07-25T06:14:53.552Z,27.43
2018-07-25T06:16:07.482Z,27.44
2018-07-25T06:17:22.033Z,27.45
2018-07-25T06:18:36.799Z,27.47
2018-07-25T06:19:51.283Z,27.47
2018-07-25T06:21:05.475Z,27.47
2018-07-25T06:22:20.364Z,27.45
2018-07-25T06:23:34.552Z,27.44
2018-07-25T06:24:49.422Z,27.43
2018-07-25T06:26:03.850Z,27.45
2018-07-25T06:27:18.193Z,27.48
2018-07-25T06:28:32.402Z,27.52
2018-07-25T06:29:46.871Z,27.54
2018-07-25T06:31:01.066Z,27.61
2018-07-25T06:32:15.865Z,27.68
2018-07-25T06:33:30.617Z,27.74
2018-07-25T06:34:45.299Z,27.81
2018-07-25T06:35:59.996Z,27.9
2018-07-25T06:37:14.190Z,27.97
2018-07-25T06:38:28.618Z,28
2018-07-25T06:39:43.284Z,28.04
2018-07-25T06:40:57.770Z,28.09
2018-07-25T06:42:11.995Z,28.11
2018-07-25T06:43:27.368Z,28.14
2018-07-25T06:44:41.687Z,28.16
2018-07-25T06:45:55.602Z,28.18
2018-07-25T06:47:10.034Z,28.22
2018-07-25T06:48:24.828Z,28.27
2018-07-25T06:49:39.521Z,28.32
2018-07-25T06:50:54.101Z,28.41
2018-07-25T06:52:08.313Z,28.49
2018-07-25T06:53:22.320Z,28.59
2018-07-25T06:54:36.758Z,28.7
2018-07-25T06:55:51.233Z,28.78
2018-07-25T06:57:05.427Z,28.85
2018-07-25T06:58:20.040Z,28.93
2018-07-25T06:59:34.577Z,28.98
2018-07-25T07:00:49.031Z,28.98
2018-07-25T07:02:03.502Z,28.99
2018-07-25T07:03:18.216Z,28.98
2018-07-25T07:04:32.687Z,28.97
2018-07-25T07:05:47.405Z,28.96
2018-07-25T07:07:14.592Z,28.96
2018-07-25T07:08:29.301Z,29
2018-07-25T07:09:44.045Z,29.07
2018-07-25T07:10:58.485Z,29.18
2018-07-25T07:12:13.088Z,29.29
2018-07-25T07:13:27.023Z,29.4
2018-07-25T07:14:41.492Z,29.5
2018-07-25T07:15:56.590Z,29.63
2018-07-25T07:17:11.299Z,29.76
2018-07-25T07:18:25.566Z,29.92
2018-07-25T07:19:40.561Z,30.07
2018-07-25T07:20:54.737Z,30.21
2018-07-25T07:22:09.456Z,30.34
2018-07-25T07:23:23.897Z,30.5
2018-07-25T07:24:38.864Z,30.63
2018-07-25T07:25:53.461Z,30.79
2018-07-25T07:27:08.215Z,30.92
2018-07-25T07:28:23.201Z,31.06
2018-07-25T07:29:37.579Z,31.19
2018-07-25T07:30:52.516Z,31.27
2018-07-25T07:32:06.712Z,31.31
2018-07-25T07:33:21.223Z,31.32
2018-07-25T07:34:35.999Z,31.3
2018-07-25T07:35:49.960Z,31.28
2018-07-25T07:37:04.688Z,31.27
2018-07-25T07:38:19.564Z,31.25
2018-07-25T07:39:34.481Z,31.25
2018-07-25T07:40:48.899Z,31.27
2018-07-25T07:42:03.377Z,31.31
2018-07-25T07:43:17.645Z,31.32
2018-07-25T07:44:31.826Z,31.33
2018-07-25T07:45:46.345Z,31.28
2018-07-25T07:47:00.817Z,31.19
2018-07-25T07:48:15.510Z,31.07
2018-07-25T07:49:29.716Z,30.99
2018-07-25T07:50:44.373Z,30.96
2018-07-25T07:51:59.127Z,30.99
2018-07-25T07:53:13.864Z,31.01
2018-07-25T07:54:28.124Z,31.07
2018-07-25T07:55:42.638Z,31.13
2018-07-25T07:56:57.328Z,31.17
2018-07-25T07:58:11.565Z,31.19
2018-07-25T07:59:25.584Z,31.19
2018-07-25T08:00:40.020Z,31.19
2018-07-25T08:01:54.516Z,31.18
2018-07-25T08:03:09.584Z,31.19
2018-07-25T08:04:24.371Z,31.23
2018-07-25T08:05:39.452Z,31.32
2018-07-25T08:06:53.132Z,31.41
2018-07-25T08:08:07.818Z,31.48
2018-07-25T08:09:22.007Z,31.57
2018-07-25T08:10:36.350Z,31.66
2018-07-25T08:11:51.694Z,31.73
2018-07-25T08:13:06.147Z,31.79
2018-07-25T08:14:20.389Z,31.81
2018-07-25T08:15:34.915Z,31.81
2018-07-25T08:16:49.609Z,31.83
2018-07-25T08:18:04.123Z,31.79
2018-07-25T08:19:18.665Z,31.77
2018-07-25T08:20:32.903Z,31.81
2018-07-25T08:21:47.405Z,31.87
2018-07-25T08:23:01.852Z,31.94
2018-07-25T08:24:16.859Z,32.02
2018-07-25T08:25:31.345Z,32.08
2018-07-25T08:26:46.375Z,32.13
2018-07-25T08:28:00.845Z,32.13
2018-07-25T08:29:15.590Z,32.16
2018-07-25T08:30:30.538Z,32.23
2018-07-25T08:31:45.415Z,32.29
2018-07-25T08:32:59.364Z,32.32
2018-07-25T08:34:14.318Z,32.36
2018-07-25T08:35:29.175Z,32.44
2018-07-25T08:36:43.251Z,32.53
2018-07-25T08:37:58.270Z,32.65
2018-07-25T08:39:12.704Z,32.74
2018-07-25T08:40:27.437Z,32.85
2018-07-25T08:41:42.017Z,32.95
2018-07-25T08:42:56.440Z,33.04
2018-07-25T08:44:10.676Z,33.14
2018-07-25T08:45:25.077Z,33.21
2018-07-25T08:46:39.691Z,33.28
2018-07-25T08:47:54.740Z,33.37
2018-07-25T08:49:09.186Z,33.45
2018-07-25T08:50:24.178Z,33.5
2018-07-25T08:51:38.966Z,33.56
2018-07-25T08:52:53.388Z,33.58
2018-07-25T08:54:08.114Z,33.6
2018-07-25T08:55:22.856Z,33.57
2018-07-25T08:56:36.813Z,33.56
2018-07-25T08:57:51.445Z,33.53
2018-07-25T08:59:06.180Z,33.51
2018-07-25T09:00:20.418Z,33.5
2018-07-25T09:01:34.686Z,33.47
2018-07-25T09:02:49.828Z,33.46
2018-07-25T09:04:04.574Z,33.45
2018-07-25T09:05:19.563Z,33.42
2018-07-25T09:06:34.458Z,33.39
2018-07-25T09:07:49.399Z,33.38
2018-07-25T09:09:04.125Z,33.38
2018-07-25T09:10:18.894Z,33.39
2018-07-25T09:11:33.617Z,33.41
2018-07-25T09:12:48.001Z,33.45
2018-07-25T09:14:03.406Z,33.48
2018-07-25T09:15:18.395Z,33.54
2018-07-25T09:16:33.124Z,33.59
2018-07-25T09:17:47.728Z,33.63
2018-07-25T09:19:02.197Z,33.65
2018-07-25T09:20:16.635Z,33.64
2018-07-25T09:21:31.432Z,33.62
2018-07-25T09:22:46.419Z,33.61
2018-07-25T09:24:01.136Z,33.59
2018-07-25T09:25:15.168Z,33.59
2018-07-25T09:26:30.505Z,33.6
2018-07-25T09:27:45.045Z,33.62
2018-07-25T09:28:59.839Z,33.66
2018-07-25T09:30:14.615Z,33.67
2018-07-25T09:31:29.185Z,33.71
2018-07-25T09:32:44.316Z,33.78
2018-07-25T09:34:01.515Z,33.84
2018-07-25T09:35:15.911Z,33.89
2018-07-25T09:36:30.470Z,33.94
2018-07-25T09:37:44.806Z,33.99
2018-07-25T09:38:59.022Z,34.03
2018-07-25T09:40:13.408Z,34.1
2018-07-25T09:41:27.958Z,34.18
2018-07-25T09:42:42.954Z,34.27
2018-07-25T09:43:58.050Z,34.36
2018-07-25T09:45:12.058Z,34.44
2018-07-25T09:46:26.869Z,34.51
2018-07-25T09:47:42.333Z,34.59
2018-07-25T09:48:57.289Z,34.64
2018-07-25T09:50:14.129Z,34.67
2018-07-25T09:51:30.731Z,34.71
2018-07-25T09:52:45.524Z,34.74
2018-07-25T09:54:00.329Z,34.79
2018-07-25T09:55:15.075Z,34.8
2018-07-25T09:56:29.309Z,34.76
2018-07-25T09:57:44.123Z,34.71
2018-07-25T09:58:59.204Z,34.66
2018-07-25T10:00:12.690Z,34.61
2018-07-25T10:01:27.436Z,34.56
2018-07-25T10:02:42.257Z,34.51
2018-07-25T10:03:57.873Z,34.47
2018-07-25T10:05:13.165Z,34.41
2018-07-25T10:06:28.823Z,34.37
2018-07-25T10:07:43.287Z,34.37
2018-07-25T10:08:57.749Z,34.38
2018-07-25T10:10:12.950Z,34.4
2018-07-25T10:11:27.528Z,34.42
2018-07-25T10:12:42.600Z,34.44
2018-07-25T10:13:57.837Z,34.45
2018-07-25T10:15:12.129Z,34.48
2018-07-25T10:16:26.771Z,34.51
2018-07-25T10:17:41.047Z,34.51
2018-07-25T10:18:55.875Z,34.51
2018-07-25T10:20:12.570Z,34.5
2018-07-25T10:21:29.551Z,34.53
2018-07-25T10:22:44.549Z,34.57
2018-07-25T10:23:59.206Z,34.6
2018-07-25T10:25:13.765Z,34.61
2018-07-25T10:26:27.514Z,34.63
2018-07-25T10:27:42.116Z,34.64
2018-07-25T10:28:57.048Z,34.67
2018-07-25T10:30:11.994Z,34.71
2018-07-25T10:31:26.566Z,34.76
2018-07-25T10:32:40.381Z,34.82
2018-07-25T10:34:10.102Z,34.86
2018-07-25T10:35:25.182Z,34.91
2018-07-25T10:36:40.395Z,34.95
2018-07-25T10:37:55.013Z,34.98
2018-07-25T10:39:10.525Z,35
